createdAt,value
2015-12-24T00:00:10.214Z,-1.27
2015-12-24T00:00:22.604Z,-1.3
2015-12-24T00:00:34.979Z,-1.31
2015-12-24T00:00:47.370Z,-1.35
2015-12-24T00:00:59.823Z,-1.3
2015-12-24T00:01:12.279Z,-1.3
2015-12-24T00:01:24.670Z,-1.32
2015-12-24T00:01:37.029Z,-1.32
2015-12-24T00:01:49.404Z,-1.25
2015-12-24T00:02:01.498Z,-1.35
2015-12-24T00:02:13.875Z,-1.32
2015-12-24T00:02:26.219Z,-1.32
2015-12-24T00:02:38.594Z,-1.28
2015-12-24T00:02:51.000Z,-1.28
2015-12-24T00:03:03.346Z,-1.31
2015-12-24T00:03:15.705Z,-1.31
2015-12-24T00:03:28.064Z,-1.27
2015-12-24T00:03:40.486Z,-1.22
2015-12-24T00:03:52.877Z,-1.24
2015-12-24T00:04:05.256Z,-1.31
2015-12-24T00:04:17.631Z,-1.27
2015-12-24T00:04:30.022Z,-1.3
2015-12-24T00:04:42.397Z,-1.35
2015-12-24T00:04:54.803Z,-1.31
2015-12-24T00:05:07.242Z,-1.3
2015-12-24T00:05:19.649Z,-1.37
2015-12-24T00:05:32.086Z,-1.25
2015-12-24T00:05:44.477Z,-1.31
2015-12-24T00:05:56.820Z,-1.31
2015-12-24T00:06:09.183Z,-1.31
2015-12-24T00:06:21.605Z,-1.21
2015-12-24T00:06:34.011Z,-1.25
2015-12-24T00:06:46.355Z,-1.25
2015-12-24T00:06:58.714Z,-1.28
2015-12-24T00:07:11.091Z,-1.21
2015-12-24T00:07:22.716Z,-1.3
2015-12-24T00:07:35.107Z,-1.32
2015-12-24T00:07:47.497Z,-1.31
2015-12-24T00:07:59.154Z,-1.31
2015-12-24T00:08:11.532Z,-1.28
2015-12-24T00:08:23.891Z,-1.25
2015-12-24T00:08:35.594Z,-1.31
2015-12-24T00:08:48.032Z,-1.3
2015-12-24T00:09:00.453Z,-1.24
2015-12-24T00:09:12.878Z,-1.35
2015-12-24T00:09:25.316Z,-1.31
2015-12-24T00:09:37.691Z,-1.27
2015-12-24T00:09:49.425Z,-1.27
2015-12-24T00:10:01.863Z,-1.27
2015-12-24T00:10:14.241Z,-1.17
2015-12-24T00:10:26.584Z,-1.32
2015-12-24T00:10:38.928Z,-1.27
2015-12-24T00:10:51.288Z,-1.27
2015-12-24T00:11:03.647Z,-1.25
2015-12-24T00:11:16.025Z,-1.34
2015-12-24T00:11:28.447Z,-1.38
2015-12-24T00:11:40.650Z,-1.37
2015-12-24T00:11:53.087Z,-1.28
2015-12-24T00:12:05.478Z,-1.38
2015-12-24T00:12:17.855Z,-1.32
2015-12-24T00:12:30.246Z,-1.38
2015-12-24T00:12:42.668Z,-1.37
2015-12-24T00:12:55.027Z,-1.43
2015-12-24T00:13:07.418Z,-1.37
2015-12-24T00:13:19.905Z,-1.35
2015-12-24T00:13:32.327Z,-1.35
2015-12-24T00:13:44.717Z,-1.37
2015-12-24T00:13:57.108Z,-1.34
2015-12-24T00:14:09.517Z,-1.35
2015-12-24T00:14:21.861Z,-1.3
2015-12-24T00:14:34.220Z,-1.37
2015-12-24T00:14:46.424Z,-1.3
2015-12-24T00:14:58.799Z,-1.31
2015-12-24T00:15:10.426Z,-1.4
2015-12-24T00:15:22.801Z,-1.37
2015-12-24T00:15:34.504Z,-1.32
2015-12-24T00:15:46.863Z,-1.35
2015-12-24T00:15:59.222Z,-1.37
2015-12-24T00:16:10.867Z,-1.4
2015-12-24T00:16:23.226Z,-1.34
2015-12-24T00:16:35.617Z,-1.4
2015-12-24T00:16:47.976Z,-1.31
2015-12-24T00:17:00.383Z,-1.34
2015-12-24T00:17:12.807Z,-1.24
2015-12-24T00:17:25.213Z,-1.32
2015-12-24T00:17:37.588Z,-1.31
2015-12-24T00:17:50.041Z,-1.35
2015-12-24T00:18:02.432Z,-1.3
2015-12-24T00:18:14.825Z,-1.27
2015-12-24T00:18:27.278Z,-1.31
2015-12-24T00:18:39.669Z,-1.35
2015-12-24T00:18:52.044Z,-1.31
2015-12-24T00:19:04.435Z,-1.3
2015-12-24T00:19:16.797Z,-1.3
2015-12-24T00:19:29.156Z,-1.42
2015-12-24T00:19:41.516Z,-1.28
2015-12-24T00:19:53.859Z,-1.32
2015-12-24T00:20:06.250Z,-1.34
2015-12-24T00:20:18.643Z,-1.35
2015-12-24T00:20:30.986Z,-1.42
2015-12-24T00:20:43.346Z,-1.42
2015-12-24T00:20:55.783Z,-1.38
2015-12-24T00:21:08.158Z,-1.32
2015-12-24T00:21:20.536Z,-1.45
2015-12-24T00:21:32.943Z,-1.42
2015-12-24T00:21:45.364Z,-1.4
2015-12-24T00:21:57.739Z,-1.43
2015-12-24T00:22:10.161Z,-1.49
2015-12-24T00:22:22.570Z,-1.49
2015-12-24T00:22:34.945Z,-1.45
2015-12-24T00:22:47.335Z,-1.46
2015-12-24T00:22:59.695Z,-1.45
2015-12-24T00:23:12.054Z,-1.46
2015-12-24T00:23:24.448Z,-1.38
2015-12-24T00:23:36.854Z,-1.46
2015-12-24T00:23:49.198Z,-1.43
2015-12-24T00:24:01.557Z,-1.38
2015-12-24T00:24:13.916Z,-1.4
2015-12-24T00:24:26.279Z,-1.43
2015-12-24T00:24:38.638Z,-1.43
2015-12-24T00:24:50.982Z,-1.46
2015-12-24T00:25:03.388Z,-1.46
2015-12-24T00:25:15.779Z,-1.42
2015-12-24T00:25:28.157Z,-1.42
2015-12-24T00:25:40.547Z,-1.46
2015-12-24T00:25:52.938Z,-1.42
2015-12-24T00:26:05.329Z,-1.43
2015-12-24T00:26:17.750Z,-1.43
2015-12-24T00:26:30.206Z,-1.46
2015-12-24T00:26:42.612Z,-1.55
2015-12-24T00:26:55.081Z,-1.46
2015-12-24T00:27:07.440Z,-1.46
2015-12-24T00:27:19.799Z,-1.43
2015-12-24T00:27:31.444Z,-1.43
2015-12-24T00:27:43.803Z,-1.56
2015-12-24T00:27:56.178Z,-1.46
2015-12-24T00:28:07.881Z,-1.48
2015-12-24T00:28:20.241Z,-1.5
2015-12-24T00:28:32.618Z,-1.49
2015-12-24T00:28:44.977Z,-1.5
2015-12-24T00:28:57.321Z,-1.52
2015-12-24T00:29:09.696Z,-1.48
2015-12-24T00:29:22.055Z,-1.5
2015-12-24T00:29:34.480Z,-1.5
2015-12-24T00:29:46.855Z,-1.52
2015-12-24T00:29:59.246Z,-1.48
2015-12-24T00:30:11.652Z,-1.52
2015-12-24T00:30:24.090Z,-1.53
2015-12-24T00:30:36.498Z,-1.49
2015-12-24T00:30:48.904Z,-1.46
2015-12-24T00:31:01.326Z,-1.5
2015-12-24T00:31:13.701Z,-1.55
2015-12-24T00:31:26.060Z,-1.49
2015-12-24T00:31:38.438Z,-1.49
2015-12-24T00:31:50.845Z,-1.4
2015-12-24T00:32:03.204Z,-1.43
2015-12-24T00:32:15.641Z,-1.45
2015-12-24T00:32:28.048Z,-1.46
2015-12-24T00:32:40.410Z,-1.43
2015-12-24T00:32:52.816Z,-1.49
2015-12-24T00:33:05.207Z,-1.4
2015-12-24T00:33:17.566Z,-1.31
2015-12-24T00:33:29.926Z,-1.46
2015-12-24T00:33:42.366Z,-1.42
2015-12-24T00:33:54.741Z,-1.32
2015-12-24T00:34:07.132Z,-1.46
2015-12-24T00:34:19.554Z,-1.34
2015-12-24T00:34:31.944Z,-1.49
2015-12-24T00:34:44.463Z,-1.45
2015-12-24T00:34:56.854Z,-1.32
2015-12-24T00:35:09.244Z,-1.37
2015-12-24T00:35:21.666Z,-1.4
2015-12-24T00:35:34.057Z,-1.45
2015-12-24T00:35:46.403Z,-1.46
2015-12-24T00:35:58.778Z,-1.4
2015-12-24T00:36:11.122Z,-1.4
2015-12-24T00:36:23.482Z,-1.35
2015-12-24T00:36:35.903Z,-1.5
2015-12-24T00:36:48.312Z,-1.49
2015-12-24T00:37:00.671Z,-1.46
2015-12-24T00:37:13.015Z,-1.4
2015-12-24T00:37:25.374Z,-1.42
2015-12-24T00:37:37.812Z,-1.49
2015-12-24T00:37:50.237Z,-1.37
2015-12-24T00:38:02.612Z,-1.32
2015-12-24T00:38:15.018Z,-1.43
2015-12-24T00:38:27.424Z,-1.35
2015-12-24T00:38:39.815Z,-1.42
2015-12-24T00:38:52.239Z,-1.43
2015-12-24T00:39:04.692Z,-1.4
2015-12-24T00:39:17.098Z,-1.43
2015-12-24T00:39:29.442Z,-1.38
2015-12-24T00:39:41.895Z,-1.32
2015-12-24T00:39:54.257Z,-1.37
2015-12-24T00:40:06.601Z,-1.42
2015-12-24T00:40:18.960Z,-1.4
2015-12-24T00:40:31.367Z,-1.42
2015-12-24T00:40:43.804Z,-1.37
2015-12-24T00:40:56.166Z,-1.38
2015-12-24T00:41:08.588Z,-1.31
2015-12-24T00:41:20.979Z,-1.37
2015-12-24T00:41:33.338Z,-1.32
2015-12-24T00:41:45.713Z,-1.4
2015-12-24T00:41:58.169Z,-1.4
2015-12-24T00:42:10.529Z,-1.43
2015-12-24T00:42:22.982Z,-1.43
2015-12-24T00:42:35.419Z,-1.4
2015-12-24T00:42:47.844Z,-1.37
2015-12-24T00:43:00.235Z,-1.42
2015-12-24T00:43:12.672Z,-1.42
2015-12-24T00:43:25.063Z,-1.45
2015-12-24T00:43:37.422Z,-1.48
2015-12-24T00:43:49.831Z,-1.4
2015-12-24T00:44:02.237Z,-1.48
2015-12-24T00:44:14.612Z,-1.38
2015-12-24T00:44:26.971Z,-1.48
2015-12-24T00:44:39.346Z,-1.5
2015-12-24T00:44:51.709Z,-1.48
2015-12-24T00:45:04.068Z,-1.48
2015-12-24T00:45:16.427Z,-1.43
2015-12-24T00:45:28.834Z,-1.42
2015-12-24T00:45:41.240Z,-1.45
2015-12-24T00:45:53.602Z,-1.46
2015-12-24T00:46:06.009Z,-1.46
2015-12-24T00:46:18.462Z,-1.49
2015-12-24T00:46:30.852Z,-1.38
2015-12-24T00:46:43.212Z,-1.48
2015-12-24T00:46:55.651Z,-1.45
2015-12-24T00:47:08.120Z,-1.56
2015-12-24T00:47:20.526Z,-1.43
2015-12-24T00:47:32.870Z,-1.38
2015-12-24T00:47:45.229Z,-1.42
2015-12-24T00:47:57.592Z,-1.4
2015-12-24T00:48:10.029Z,-1.48
2015-12-24T00:48:22.404Z,-1.45
2015-12-24T00:48:34.764Z,-1.45
2015-12-24T00:48:47.170Z,-1.45
2015-12-24T00:48:59.580Z,-1.45
2015-12-24T00:49:11.939Z,-1.43
2015-12-24T00:49:24.299Z,-1.42
2015-12-24T00:49:36.689Z,-1.53
2015-12-24T00:49:49.049Z,-1.45
2015-12-24T00:50:01.426Z,-1.37
2015-12-24T00:50:13.910Z,-1.5
2015-12-24T00:50:26.270Z,-1.45
2015-12-24T00:50:38.676Z,-1.52
2015-12-24T00:50:51.066Z,-1.5
2015-12-24T00:51:03.507Z,-1.49
2015-12-24T00:51:15.960Z,-1.5
2015-12-24T00:51:28.319Z,-1.56
2015-12-24T00:51:40.679Z,-1.49
2015-12-24T00:51:53.038Z,-1.49
2015-12-24T00:52:05.384Z,-1.5
2015-12-24T00:52:17.743Z,-1.49
2015-12-24T00:52:30.165Z,-1.49
2015-12-24T00:52:42.525Z,-1.52
2015-12-24T00:52:54.884Z,-1.55
2015-12-24T00:53:07.246Z,-1.53
2015-12-24T00:53:19.637Z,-1.56
2015-12-24T00:53:31.996Z,-1.52
2015-12-24T00:53:44.371Z,-1.5
2015-12-24T00:53:56.746Z,-1.53
2015-12-24T00:54:09.109Z,-1.45
2015-12-24T00:54:20.843Z,-1.56
2015-12-24T00:54:33.265Z,-1.46
2015-12-24T00:54:45.656Z,-1.48
2015-12-24T00:54:58.077Z,-1.56
2015-12-24T00:55:10.455Z,-1.52
2015-12-24T00:55:22.815Z,-1.52
2015-12-24T00:55:35.174Z,-1.56
2015-12-24T00:55:47.534Z,-1.61
2015-12-24T00:55:59.893Z,-1.53
2015-12-24T00:56:12.301Z,-1.53
2015-12-24T00:56:24.645Z,-1.52
2015-12-24T00:56:37.004Z,-1.63
2015-12-24T00:56:49.364Z,-1.63
2015-12-24T00:57:01.742Z,-1.56
2015-12-24T00:57:14.101Z,-1.61
2015-12-24T00:57:26.539Z,-1.66
2015-12-24T00:57:38.914Z,-1.66
2015-12-24T00:57:51.273Z,-1.71
2015-12-24T00:58:02.963Z,-1.61
2015-12-24T00:58:14.635Z,-1.53
2015-12-24T00:58:27.042Z,-1.61
2015-12-24T00:58:39.448Z,-1.63
2015-12-24T00:58:51.792Z,-1.64
2015-12-24T00:59:04.154Z,-1.52
2015-12-24T00:59:15.795Z,-1.63
2015-12-24T00:59:28.170Z,-1.55
2015-12-24T00:59:40.529Z,-1.61
2015-12-24T00:59:52.935Z,-1.58
2015-12-24T01:00:05.297Z,-1.7
2015-12-24T01:00:17.656Z,-1.66
2015-12-24T01:00:30.031Z,-1.66
2015-12-24T01:00:42.390Z,-1.64
2015-12-24T01:00:54.593Z,-1.61
2015-12-24T01:01:06.971Z,-1.66
2015-12-24T01:01:19.378Z,-1.71
2015-12-24T01:01:31.768Z,-1.79
2015-12-24T01:01:44.159Z,-1.81
2015-12-24T01:01:56.550Z,-1.71
2015-12-24T01:02:08.959Z,-1.81
2015-12-24T01:02:21.349Z,-1.74
2015-12-24T01:02:33.756Z,-1.73
2015-12-24T01:02:46.162Z,-1.76
2015-12-24T01:02:58.568Z,-1.81
2015-12-24T01:03:10.930Z,-1.74
2015-12-24T01:03:23.305Z,-1.73
2015-12-24T01:03:35.664Z,-1.84
2015-12-24T01:03:48.023Z,-1.81
2015-12-24T01:04:00.492Z,-1.81
2015-12-24T01:04:12.838Z,-1.82
2015-12-24T01:04:25.197Z,-1.82
2015-12-24T01:04:37.603Z,-1.76
2015-12-24T01:04:49.963Z,-1.84
2015-12-24T01:05:02.322Z,-1.79
2015-12-24T01:05:14.748Z,-1.89
2015-12-24T01:05:27.123Z,-1.91
2015-12-24T01:05:39.498Z,-1.89
2015-12-24T01:05:51.873Z,-1.89
2015-12-24T01:06:04.248Z,-1.88
2015-12-24T01:06:16.642Z,-1.94
2015-12-24T01:06:29.048Z,-1.96
2015-12-24T01:06:41.439Z,-1.92
2015-12-24T01:06:53.829Z,-1.86
2015-12-24T01:07:06.251Z,-1.85
2015-12-24T01:07:18.597Z,-1.91
2015-12-24T01:07:30.956Z,-1.97
2015-12-24T01:07:43.316Z,-1.88
2015-12-24T01:07:55.691Z,-1.99
2015-12-24T01:08:08.050Z,-1.91
2015-12-24T01:08:20.444Z,-1.94
2015-12-24T01:08:32.694Z,-1.92
2015-12-24T01:08:45.053Z,-1.92
2015-12-24T01:08:57.428Z,-1.92
2015-12-24T01:09:09.852Z,-1.97
2015-12-24T01:09:22.258Z,-1.96
2015-12-24T01:09:34.649Z,-1.97
2015-12-24T01:09:47.039Z,-1.89
2015-12-24T01:09:59.446Z,-1.88
2015-12-24T01:10:11.667Z,-2.05
2015-12-24T01:10:24.089Z,-1.97
2015-12-24T01:10:36.558Z,-1.91
2015-12-24T01:10:48.917Z,-1.99
2015-12-24T01:11:01.261Z,-1.97
2015-12-24T01:11:13.623Z,-2.02
2015-12-24T01:11:25.983Z,-2.05
2015-12-24T01:11:38.420Z,-1.88
2015-12-24T01:11:50.764Z,-2.03
2015-12-24T01:12:03.123Z,-1.99
2015-12-24T01:12:15.486Z,-1.99
2015-12-24T01:12:27.845Z,-2.07
2015-12-24T01:12:40.205Z,-2
2015-12-24T01:12:52.642Z,-2.05
2015-12-24T01:13:05.048Z,-2.05
2015-12-24T01:13:17.411Z,-2.07
2015-12-24T01:13:29.817Z,-2.05
2015-12-24T01:13:42.208Z,-2.03
2015-12-24T01:13:54.598Z,-2.1
2015-12-24T01:14:06.286Z,-2.05
2015-12-24T01:14:18.678Z,-1.99
2015-12-24T01:14:31.053Z,-2
2015-12-24T01:14:43.413Z,-2.09
2015-12-24T01:14:55.788Z,-2.07
2015-12-24T01:15:08.194Z,-2.02
2015-12-24T01:15:20.603Z,-2.06
2015-12-24T01:15:32.963Z,-2.05
2015-12-24T01:15:45.306Z,-2.1
2015-12-24T01:15:57.650Z,-2.09
2015-12-24T01:16:10.088Z,-2.17
2015-12-24T01:16:22.497Z,-2.07
2015-12-24T01:16:34.841Z,-2.12
2015-12-24T01:16:47.216Z,-2.15
2015-12-24T01:16:59.591Z,-2.14
2015-12-24T01:17:11.966Z,-2.1
2015-12-24T01:17:24.343Z,-2.15
2015-12-24T01:17:36.702Z,-2.15
2015-12-24T01:17:49.139Z,-2.09
2015-12-24T01:18:01.546Z,-2.07
2015-12-24T01:18:13.936Z,-2.12
2015-12-24T01:18:26.346Z,-2.09
2015-12-24T01:18:38.674Z,-2.2
2015-12-24T01:18:51.017Z,-2.15
2015-12-24T01:19:02.689Z,-2.15
2015-12-24T01:19:15.080Z,-2.21
2015-12-24T01:19:27.427Z,-2.17
2015-12-24T01:19:39.786Z,-2.2
2015-12-24T01:19:52.145Z,-2.17
2015-12-24T01:20:04.536Z,-2.24
2015-12-24T01:20:16.942Z,-2.24
2015-12-24T01:20:29.289Z,-2.23
2015-12-24T01:20:41.648Z,-2.21
2015-12-24T01:20:54.008Z,-2.28
2015-12-24T01:21:06.383Z,-2.36
2015-12-24T01:21:18.773Z,-2.27
2015-12-24T01:21:31.150Z,-2.24
2015-12-24T01:21:43.541Z,-2.3
2015-12-24T01:22:26.557Z,-2.37
2015-12-24T01:22:38.920Z,-2.3
2015-12-24T01:22:51.279Z,-2.32
2015-12-24T01:23:03.639Z,-2.34
2015-12-24T01:23:15.998Z,-2.32
2015-12-24T01:23:28.373Z,-2.25
2015-12-24T01:23:40.781Z,-2.44
2015-12-24T01:23:53.156Z,-2.39
2015-12-24T01:24:05.516Z,-2.43
2015-12-24T01:24:17.891Z,-2.44
2015-12-24T01:24:30.266Z,-2.44
2015-12-24T01:24:42.643Z,-2.42
2015-12-24T01:24:55.049Z,-2.44
2015-12-24T01:25:07.487Z,-2.43
2015-12-24T01:25:19.893Z,-2.5
2015-12-24T01:25:31.596Z,-2.54
2015-12-24T01:25:44.068Z,-2.42
2015-12-24T01:25:56.458Z,-2.49
2015-12-24T01:26:08.865Z,-2.42
2015-12-24T01:26:21.224Z,-2.47
2015-12-24T01:26:33.583Z,-2.44
2015-12-24T01:26:45.931Z,-2.5
2015-12-24T01:26:57.587Z,-2.53
2015-12-24T01:27:09.931Z,-2.49
2015-12-24T01:27:22.306Z,-2.44
2015-12-24T01:27:34.697Z,-2.55
2015-12-24T01:27:47.121Z,-2.5
2015-12-24T01:27:59.480Z,-2.5
2015-12-24T01:28:11.839Z,-2.55
2015-12-24T01:28:24.214Z,-2.49
2015-12-24T01:28:35.886Z,-2.5
2015-12-24T01:28:48.107Z,-2.55
2015-12-24T01:29:00.482Z,-2.55
2015-12-24T01:29:12.919Z,-2.5
2015-12-24T01:29:25.310Z,-2.5
2015-12-24T01:29:37.685Z,-2.5
2015-12-24T01:29:50.080Z,-2.54
2015-12-24T01:30:02.470Z,-2.55
2015-12-24T01:30:14.892Z,-2.62
2015-12-24T01:30:27.252Z,-2.5
2015-12-24T01:30:39.595Z,-2.61
2015-12-24T01:30:51.957Z,-2.61
2015-12-24T01:31:04.300Z,-2.61
2015-12-24T01:31:16.675Z,-2.43
2015-12-24T01:31:29.066Z,-2.46
2015-12-24T01:31:41.488Z,-2.67
2015-12-24T01:31:53.850Z,-2.65
2015-12-24T01:32:06.210Z,-2.68
2015-12-24T01:32:18.569Z,-2.53
2015-12-24T01:32:30.913Z,-2.57
2015-12-24T01:32:43.306Z,-2.49
2015-12-24T01:32:55.010Z,-2.55
2015-12-24T01:33:07.385Z,-2.5
2015-12-24T01:33:19.853Z,-2.5
2015-12-24T01:33:32.228Z,-2.49
2015-12-24T01:33:44.466Z,-2.57
2015-12-24T01:33:56.841Z,-2.61
2015-12-24T01:34:09.231Z,-2.64
2015-12-24T01:34:21.638Z,-2.54
2015-12-24T01:34:34.059Z,-2.5
2015-12-24T01:34:46.500Z,-2.64
2015-12-24T01:34:58.859Z,-2.68
2015-12-24T01:35:11.281Z,-2.62
2015-12-24T01:35:23.656Z,-2.55
2015-12-24T01:35:36.031Z,-2.67
2015-12-24T01:35:48.376Z,-2.55
2015-12-24T01:36:00.782Z,-2.55
2015-12-24T01:36:13.157Z,-2.65
2015-12-24T01:36:25.563Z,-2.58
2015-12-24T01:36:37.938Z,-2.58
2015-12-24T01:36:50.301Z,-2.55
2015-12-24T01:37:02.676Z,-2.55
2015-12-24T01:37:14.332Z,-2.62
2015-12-24T01:37:26.707Z,-2.58
2015-12-24T01:37:39.082Z,-2.61
2015-12-24T01:37:51.585Z,-2.67
2015-12-24T01:38:03.976Z,-2.61
2015-12-24T01:38:16.366Z,-2.54
2015-12-24T01:38:28.757Z,-2.6
2015-12-24T01:38:41.148Z,-2.55
2015-12-24T01:38:53.510Z,-2.5
2015-12-24T01:39:05.869Z,-2.5
2015-12-24T01:39:18.229Z,-2.5
2015-12-24T01:39:30.604Z,-2.55
2015-12-24T01:39:42.947Z,-2.55
2015-12-24T01:39:55.324Z,-2.57
2015-12-24T01:40:07.746Z,-2.46
2015-12-24T01:40:20.106Z,-2.53
2015-12-24T01:40:32.465Z,-2.47
2015-12-24T01:40:44.824Z,-2.5
2015-12-24T01:40:57.218Z,-2.53
2015-12-24T01:41:09.656Z,-2.55
2015-12-24T01:41:22.015Z,-2.49
2015-12-24T01:41:34.390Z,-2.54
2015-12-24T01:41:46.765Z,-2.4
2015-12-24T01:41:59.159Z,-2.42
2015-12-24T01:42:11.534Z,-2.43
2015-12-24T01:42:23.971Z,-2.42
2015-12-24T01:42:36.346Z,-2.46
2015-12-24T01:42:48.768Z,-2.39
2015-12-24T01:43:01.209Z,-2.46
2015-12-24T01:43:13.569Z,-2.46
2015-12-24T01:43:25.928Z,-2.44
2015-12-24T01:43:38.288Z,-2.47
2015-12-24T01:43:50.631Z,-2.46
2015-12-24T01:44:03.040Z,-2.44
2015-12-24T01:44:15.430Z,-2.53
2015-12-24T01:44:27.774Z,-2.44
2015-12-24T01:44:40.227Z,-2.46
2015-12-24T01:44:52.602Z,-2.42
2015-12-24T01:45:04.245Z,-2.42
2015-12-24T01:45:16.620Z,-2.49
2015-12-24T01:45:28.995Z,-2.37
2015-12-24T01:45:41.370Z,-2.49
2015-12-24T01:45:53.729Z,-2.53
2015-12-24T01:46:06.201Z,-2.47
2015-12-24T01:46:18.591Z,-2.53
2015-12-24T01:46:30.982Z,-2.5
2015-12-24T01:46:43.373Z,-2.49
2015-12-24T01:46:55.763Z,-2.46
2015-12-24T01:47:08.188Z,-2.54
2015-12-24T01:47:20.579Z,-2.44
2015-12-24T01:47:32.969Z,-2.47
2015-12-24T01:47:45.313Z,-2.43
2015-12-24T01:47:57.704Z,-2.47
2015-12-24T01:48:10.097Z,-2.43
2015-12-24T01:48:22.457Z,-2.43
2015-12-24T01:48:34.863Z,-2.42
2015-12-24T01:48:47.285Z,-2.43
2015-12-24T01:48:59.644Z,-2.44
2015-12-24T01:49:12.006Z,-2.42
2015-12-24T01:49:24.365Z,-2.46
2015-12-24T01:49:36.756Z,-2.46
2015-12-24T01:49:49.178Z,-2.47
2015-12-24T01:50:01.557Z,-2.4
2015-12-24T01:50:13.978Z,-2.42
2015-12-24T01:50:26.463Z,-2.37
2015-12-24T01:50:38.135Z,-2.36
2015-12-24T01:50:50.525Z,-2.47
2015-12-24T01:51:02.949Z,-2.4
2015-12-24T01:51:15.340Z,-2.46
2015-12-24T01:51:27.746Z,-2.44
2015-12-24T01:51:40.105Z,-2.44
2015-12-24T01:51:52.465Z,-2.5
2015-12-24T01:52:04.827Z,-2.4
2015-12-24T01:52:17.249Z,-2.57
2015-12-24T01:52:29.624Z,-2.49
2015-12-24T01:52:42.030Z,-2.39
2015-12-24T01:52:54.405Z,-2.49
2015-12-24T01:53:06.768Z,-2.47
2015-12-24T01:53:18.955Z,-2.57
2015-12-24T01:53:31.158Z,-2.55
2015-12-24T01:53:43.518Z,-2.46
2015-12-24T01:53:55.940Z,-2.53
2015-12-24T01:54:08.348Z,-2.46
2015-12-24T01:54:20.723Z,-2.53
2015-12-24T01:54:33.098Z,-2.54
2015-12-24T01:54:45.535Z,-2.54
2015-12-24T01:54:58.004Z,-2.49
2015-12-24T01:55:10.413Z,-2.55
2015-12-24T01:55:22.804Z,-2.57
2015-12-24T01:55:35.179Z,-2.55
2015-12-24T01:55:47.570Z,-2.61
2015-12-24T01:55:59.929Z,-2.49
2015-12-24T01:56:12.306Z,-2.6
2015-12-24T01:56:24.728Z,-2.61
2015-12-24T01:56:37.072Z,-2.54
2015-12-24T01:56:49.478Z,-2.6
2015-12-24T01:57:01.853Z,-2.53
2015-12-24T01:57:14.216Z,-2.54
2015-12-24T01:57:26.576Z,-2.58
2015-12-24T01:57:38.935Z,-2.53
2015-12-24T01:57:51.294Z,-2.62
2015-12-24T01:58:03.654Z,-2.57
2015-12-24T01:58:16.031Z,-2.61
2015-12-24T01:58:28.406Z,-2.5
2015-12-24T01:58:40.781Z,-2.62
2015-12-24T01:58:53.156Z,-2.67
2015-12-24T01:59:05.546Z,-2.64
2015-12-24T01:59:17.909Z,-2.58
2015-12-24T01:59:30.268Z,-2.58
2015-12-24T01:59:42.627Z,-2.61
2015-12-24T01:59:54.987Z,-2.55
2015-12-24T02:00:07.348Z,-2.54
2015-12-24T02:00:19.692Z,-2.53
2015-12-24T02:00:32.098Z,-2.67
2015-12-24T02:00:44.489Z,-2.65
2015-12-24T02:00:56.879Z,-2.65
2015-12-24T02:01:09.257Z,-2.67
2015-12-24T02:01:21.601Z,-2.6
2015-12-24T02:01:33.976Z,-2.62
2015-12-24T02:01:46.382Z,-2.65
2015-12-24T02:01:58.820Z,-2.65
2015-12-24T02:02:11.228Z,-2.7
2015-12-24T02:02:23.619Z,-2.62
2015-12-24T02:02:36.025Z,-2.61
2015-12-24T02:02:48.447Z,-2.6
2015-12-24T02:03:00.900Z,-2.6
2015-12-24T02:03:13.295Z,-2.62
2015-12-24T02:03:25.701Z,-2.6
2015-12-24T02:03:38.076Z,-2.68
2015-12-24T02:03:50.420Z,-2.67
2015-12-24T02:04:02.779Z,-2.61
2015-12-24T02:04:15.141Z,-2.7
2015-12-24T02:04:27.501Z,-2.72
2015-12-24T02:04:39.860Z,-2.68
2015-12-24T02:04:52.220Z,-2.65
2015-12-24T02:05:04.563Z,-2.79
2015-12-24T02:05:16.925Z,-2.68
2015-12-24T02:05:29.284Z,-2.75
2015-12-24T02:05:41.675Z,-2.7
2015-12-24T02:05:54.097Z,-2.7
2015-12-24T02:06:06.472Z,-2.68
2015-12-24T02:06:18.850Z,-2.78
2015-12-24T02:06:31.240Z,-2.72
2015-12-24T02:06:43.631Z,-2.78
2015-12-24T02:06:56.021Z,-2.75
2015-12-24T02:07:08.412Z,-2.7
2015-12-24T02:07:20.806Z,-2.78
2015-12-24T02:07:33.165Z,-2.79
2015-12-24T02:07:45.509Z,-2.7
2015-12-24T02:07:57.868Z,-2.72
2015-12-24T02:08:10.259Z,-2.68
2015-12-24T02:08:22.605Z,-2.7
2015-12-24T02:08:34.980Z,-2.78
2015-12-24T02:08:46.620Z,-2.6
2015-12-24T02:08:59.042Z,-2.68
2015-12-24T02:09:11.386Z,-2.7
2015-12-24T02:09:23.748Z,-2.65
2015-12-24T02:09:36.108Z,-2.67
2015-12-24T02:09:48.483Z,-2.75
2015-12-24T02:10:00.858Z,-2.72
2015-12-24T02:10:13.233Z,-2.64
2015-12-24T02:10:25.626Z,-2.65
2015-12-24T02:10:38.001Z,-2.7
2015-12-24T02:10:50.392Z,-2.68
2015-12-24T02:11:02.782Z,-2.73
2015-12-24T02:11:15.189Z,-2.61
2015-12-24T02:11:27.581Z,-2.57
2015-12-24T02:11:39.956Z,-2.58
2015-12-24T02:11:52.316Z,-2.57
2015-12-24T02:12:04.675Z,-2.67
2015-12-24T02:12:17.034Z,-2.5
2015-12-24T02:12:29.398Z,-2.6
2015-12-24T02:12:41.773Z,-2.6
2015-12-24T02:12:54.132Z,-2.5
2015-12-24T02:13:06.554Z,-2.49
2015-12-24T02:13:18.913Z,-2.54
2015-12-24T02:13:31.291Z,-2.49
2015-12-24T02:13:43.651Z,-2.62
2015-12-24T02:13:56.010Z,-2.64
2015-12-24T02:14:08.370Z,-2.58
2015-12-24T02:14:20.745Z,-2.53
2015-12-24T02:14:33.122Z,-2.5
2015-12-24T02:14:45.481Z,-2.47
2015-12-24T02:14:57.903Z,-2.54
2015-12-24T02:15:10.293Z,-2.49
2015-12-24T02:15:22.700Z,-2.5
2015-12-24T02:15:35.170Z,-2.43
2015-12-24T02:15:47.608Z,-2.46
2015-12-24T02:15:59.999Z,-2.44
2015-12-24T02:16:12.374Z,-2.46
2015-12-24T02:16:24.764Z,-2.49
2015-12-24T02:16:37.112Z,-2.42
2015-12-24T02:16:49.471Z,-2.44
2015-12-24T02:17:01.893Z,-2.44
2015-12-24T02:17:14.253Z,-2.46
2015-12-24T02:17:26.612Z,-2.44
2015-12-24T02:17:38.974Z,-2.36
2015-12-24T02:17:51.334Z,-2.39
2015-12-24T02:18:03.693Z,-2.47
2015-12-24T02:18:16.084Z,-2.43
2015-12-24T02:18:28.459Z,-2.39
2015-12-24T02:18:40.868Z,-2.36
2015-12-24T02:18:53.243Z,-2.39
2015-12-24T02:19:05.618Z,-2.42
2015-12-24T02:19:18.009Z,-2.43
2015-12-24T02:19:30.243Z,-2.44
2015-12-24T02:19:42.651Z,-2.27
2015-12-24T02:19:55.042Z,-2.4
2015-12-24T02:20:07.448Z,-2.44
2015-12-24T02:20:19.807Z,-2.46
2015-12-24T02:20:32.182Z,-2.44
2015-12-24T02:20:44.545Z,-2.4
2015-12-24T02:20:56.904Z,-2.44
2015-12-24T02:21:09.248Z,-2.47
2015-12-24T02:21:21.607Z,-2.44
2015-12-24T02:21:33.967Z,-2.49
2015-12-24T02:21:46.344Z,-2.49
2015-12-24T02:21:58.703Z,-2.42
2015-12-24T02:22:11.047Z,-2.49
2015-12-24T02:22:23.406Z,-2.44
2015-12-24T02:22:35.812Z,-2.49
2015-12-24T02:22:48.190Z,-2.47
2015-12-24T02:23:00.565Z,-2.42
2015-12-24T02:23:12.925Z,-2.44
2015-12-24T02:23:25.315Z,-2.49
2015-12-24T02:23:37.706Z,-2.44
2015-12-24T02:23:50.083Z,-2.43
2015-12-24T02:24:02.489Z,-2.4
2015-12-24T02:24:14.942Z,-2.44
2015-12-24T02:24:27.349Z,-2.39
2015-12-24T02:24:39.692Z,-2.43
2015-12-24T02:24:52.056Z,-2.46
2015-12-24T02:25:04.415Z,-2.47
2015-12-24T02:25:16.775Z,-2.49
2015-12-24T02:25:29.150Z,-2.44
2015-12-24T02:25:41.525Z,-2.42
2015-12-24T02:25:53.933Z,-2.49
2015-12-24T02:26:06.292Z,-2.49
2015-12-24T02:26:18.667Z,-2.46
2015-12-24T02:26:31.042Z,-2.42
2015-12-24T02:26:43.436Z,-2.42
2015-12-24T02:26:55.811Z,-2.47
2015-12-24T02:27:08.170Z,-2.44
2015-12-24T02:27:20.530Z,-2.49
2015-12-24T02:27:32.936Z,-2.42
2015-12-24T02:27:45.439Z,-2.42
2015-12-24T02:27:57.861Z,-2.24
2015-12-24T02:28:10.251Z,-2.44
2015-12-24T02:28:22.642Z,-2.32
2015-12-24T02:28:35.111Z,-2.27
2015-12-24T02:28:47.472Z,-2.32
2015-12-24T02:28:59.831Z,-2.27
2015-12-24T02:29:12.206Z,-2.23
2015-12-24T02:29:24.581Z,-2.27
2015-12-24T02:29:36.972Z,-2.27
2015-12-24T02:29:49.381Z,-2.21
2015-12-24T02:30:01.741Z,-2.28
2015-12-24T02:30:14.084Z,-2.17
2015-12-24T02:30:26.459Z,-2.09
2015-12-24T02:30:38.834Z,-2.25
2015-12-24T02:30:51.228Z,-2.21
2015-12-24T02:31:03.634Z,-2.15
2015-12-24T02:31:15.994Z,-2.17
2015-12-24T02:31:28.384Z,-2.06
2015-12-24T02:31:40.791Z,-2.06
2015-12-24T02:31:53.214Z,-2.17
2015-12-24T02:32:05.621Z,-2.17
2015-12-24T02:32:18.011Z,-1.94
2015-12-24T02:32:30.371Z,-2.02
2015-12-24T02:32:42.714Z,-2.03
2015-12-24T02:32:55.139Z,-2.02
2015-12-24T02:33:07.530Z,-1.86
2015-12-24T02:33:19.936Z,-1.96
2015-12-24T02:33:32.296Z,-1.91
2015-12-24T02:33:44.655Z,-1.96
2015-12-24T02:33:57.034Z,-1.84
2015-12-24T02:34:09.425Z,-1.89
2015-12-24T02:34:21.831Z,-1.92
2015-12-24T02:34:34.190Z,-1.86
2015-12-24T02:34:46.565Z,-1.85
2015-12-24T02:34:58.942Z,-1.91
2015-12-24T02:35:11.317Z,-1.94
2015-12-24T02:35:23.692Z,-1.88
2015-12-24T02:35:36.083Z,-1.88
2015-12-24T02:35:48.458Z,-1.89
2015-12-24T02:36:00.851Z,-1.82
2015-12-24T02:36:13.242Z,-1.81
2015-12-24T02:36:25.617Z,-1.79
2015-12-24T02:36:38.008Z,-1.82
2015-12-24T02:36:50.367Z,-1.76
2015-12-24T02:37:02.729Z,-1.79
2015-12-24T02:37:15.073Z,-1.81
2015-12-24T02:37:27.448Z,-1.76
2015-12-24T02:37:39.808Z,-1.74
2015-12-24T02:37:52.151Z,-1.7
2015-12-24T02:38:04.514Z,-1.74
2015-12-24T02:38:16.889Z,-1.76
2015-12-24T02:38:29.232Z,-1.73
2015-12-24T02:38:41.592Z,-1.63
2015-12-24T02:38:53.967Z,-1.7
2015-12-24T02:39:06.328Z,-1.68
2015-12-24T02:39:18.703Z,-1.6
2015-12-24T02:39:31.078Z,-1.66
2015-12-24T02:39:43.469Z,-1.76
2015-12-24T02:39:55.844Z,-1.67
2015-12-24T02:40:08.237Z,-1.64
2015-12-24T02:40:20.628Z,-1.61
2015-12-24T02:40:33.019Z,-1.52